Time;durP1;ratioP1;P1;durP2;ratioP2;P2;SDS_P1;SDS_P2;PMS_P1;PMS_P2;Temp;Humidity;BMP_temperature;BMP_pressure;BME280_temperature;BME280_humidity;BME280_pressure;Samples;Min_cycle;Max_cycle;Signal;HPM_P1;HPM_P2
2022/01/22 00:00:44;;;;;;;15.9;6.3;;;;;;;-0.62;75.63574;96417.82;;;;
2022/01/22 00:01:46;;;;;;;15.9;6.3;;;;;;;-0.62;75.63574;96417.82;;;;
2022/01/22 00:02:47;;;;;;;15.9;6.3;;;;;;;-0.62;75.63574;96417.82;;;;
2022/01/22 00:03:49;;;;;;;15.9;6.3;;;;;;;-0.62;75.63574;96417.82;;;;
2022/01/22 00:04:49;;;;;;;15.9;6.3;;;;;;;-0.62;75.63574;96417.82;;;;
2022/01/22 00:05:50;;;;;;;5.000001;2.7;;;;;;;-0.6;75.65137;96401.71;;;;
2022/01/22 00:06:52;;;;;;;5.000001;2.7;;;;;;;-0.6;75.65137;96401.71;;;;
2022/01/22 00:07:52;;;;;;;5.000001;2.7;;;;;;;-0.6;75.65137;96401.71;;;;
2022/01/22 00:08:53;;;;;;;5.000001;2.7;;;;;;;-0.6;75.65137;96401.71;;;;
2022/01/22 00:09:59;;;;;;;5.000001;2.7;;;;;;;-0.6;75.65137;96401.71;;;;
2022/01/22 00:11:02;;;;;;;5.000001;2.7;;;;;;;-0.6;75.65137;96401.71;;;;
2022/01/22 00:12:03;;;;;;;5.000001;2.7;;;;;;;-0.6;75.65137;96401.71;;;;
2022/01/22 00:14:23;;;;;;;5.000001;2.7;;;;;;;-0.6;75.65137;96401.71;;;;
2022/01/22 00:15:23;;;;;;;5.000001;2.7;;;;;;;-0.6;75.65137;96401.71;;;;
2022/01/22 00:16:25;;;;;;;5.65;2.45;;;;;;;-0.57;75.72949;96374;;;;
2022/01/22 00:17:25;;;;;;;5.65;2.45;;;;;;;-0.57;75.72949;96374;;;;
2022/01/22 00:18:26;;;;;;;5.65;2.45;;;;;;;-0.57;75.72949;96374;;;;
2022/01/22 00:19:26;;;;;;;5.65;2.45;;;;;;;-0.57;75.72949;96374;;;;
2022/01/22 00:20:27;;;;;;;5.65;2.45;;;;;;;-0.57;75.72949;96374;;;;
2022/01/22 00:21:28;;;;;;;5.65;2.45;;;;;;;-0.57;75.72949;96374;;;;
2022/01/22 00:22:32;;;;;;;5.65;2.45;;;;;;;-0.57;75.72949;96374;;;;
2022/01/22 00:23:36;;;;;;;5.65;2.45;;;;;;;-0.57;75.72949;96374;;;;
2022/01/22 00:24:39;;;;;;;5.65;2.45;;;;;;;-0.57;75.72949;96374;;;;
2022/01/22 00:25:39;;;;;;;5.65;2.45;;;;;;;-0.57;75.72949;96374;;;;
2022/01/22 00:26:40;;;;;;;5.65;2.45;;;;;;;-0.57;75.72949;96374;;;;
2022/01/22 00:27:41;;;;;;;3.6;2.05;;;;;;;-0.5;75.67871;96386.61;;;;
2022/01/22 00:28:44;;;;;;;3.6;2.05;;;;;;;-0.5;75.67871;96386.61;;;;
2022/01/22 00:29:44;;;;;;;3.6;2.05;;;;;;;-0.5;75.67871;96386.61;;;;
2022/01/22 00:30:45;;;;;;;3.6;2.05;;;;;;;-0.5;75.67871;96386.61;;;;
2022/01/22 00:31:45;;;;;;;3.6;2.05;;;;;;;-0.5;75.67871;96386.61;;;;
2022/01/22 00:32:46;;;;;;;3.6;2.05;;;;;;;-0.5;75.67871;96386.61;;;;
2022/01/22 00:33:47;;;;;;;3.6;2.05;;;;;;;-0.5;75.67871;96386.61;;;;
2022/01/22 00:34:47;;;;;;;3.6;2.05;;;;;;;-0.5;75.67871;96386.61;;;;
2022/01/22 00:35:48;;;;;;;3.6;2.05;;;;;;;-0.5;75.67871;96386.61;;;;
2022/01/22 00:36:49;;;;;;;3.6;2.05;;;;;;;-0.5;75.67871;96386.61;;;;
2022/01/22 00:37:49;;;;;;;4.15;2.3;;;;;;;-0.42;75.54785;96371.74;;;;
2022/01/22 00:38:51;;;;;;;4.15;2.3;;;;;;;-0.42;75.54785;96371.74;;;;
2022/01/22 00:39:52;;;;;;;4.15;2.3;;;;;;;-0.42;75.54785;96371.74;;;;
2022/01/22 00:40:52;;;;;;;4.15;2.3;;;;;;;-0.42;75.54785;96371.74;;;;
2022/01/22 00:41:53;;;;;;;4.15;2.3;;;;;;;-0.42;75.54785;96371.74;;;;
2022/01/22 00:42:53;;;;;;;4.15;2.3;;;;;;;-0.42;75.54785;96371.74;;;;
2022/01/22 00:43:54;;;;;;;4.15;2.3;;;;;;;-0.42;75.54785;96371.74;;;;
2022/01/22 00:44:54;;;;;;;4.15;2.3;;;;;;;-0.42;75.54785;96371.74;;;;
2022/01/22 00:45:55;;;;;;;4.15;2.3;;;;;;;-0.42;75.54785;96371.74;;;;
2022/01/22 00:46:59;;;;;;;4.15;2.3;;;;;;;-0.42;75.54785;96371.74;;;;
2022/01/22 00:47:59;;;;;;;4.15;2.3;;;;;;;-0.42;75.54785;96371.74;;;;
2022/01/22 00:49:00;;;;;;;5.650001;2.25;;;;;;;-0.36;75.41016;96373.41;;;;
2022/01/22 00:50:00;;;;;;;5.650001;2.25;;;;;;;-0.36;75.41016;96373.41;;;;
2022/01/22 00:51:01;;;;;;;5.650001;2.25;;;;;;;-0.36;75.41016;96373.41;;;;
2022/01/22 00:52:02;;;;;;;5.650001;2.25;;;;;;;-0.36;75.41016;96373.41;;;;
2022/01/22 00:53:03;;;;;;;5.650001;2.25;;;;;;;-0.36;75.41016;96373.41;;;;
2022/01/22 00:54:05;;;;;;;5.650001;2.25;;;;;;;-0.36;75.41016;96373.41;;;;
2022/01/22 00:55:05;;;;;;;5.650001;2.25;;;;;;;-0.36;75.41016;96373.41;;;;
2022/01/22 00:56:07;;;;;;;5.650001;2.25;;;;;;;-0.36;75.41016;96373.41;;;;
2022/01/22 00:57:07;;;;;;;5.650001;2.25;;;;;;;-0.36;75.41016;96373.41;;;;
2022/01/22 00:58:08;;;;;;;5.650001;2.25;;;;;;;-0.36;75.41016;96373.41;;;;
2022/01/22 00:59:09;;;;;;;5.150001;2.55;;;;;;;-0.23;75.23535;96360.66;;;;
2022/01/22 01:00:09;;;;;;;5.150001;2.55;;;;;;;-0.23;75.23535;96360.66;;;;
2022/01/22 01:01:12;;;;;;;5.150001;2.55;;;;;;;-0.23;75.23535;96360.66;;;;
2022/01/22 01:02:13;;;;;;;5.150001;2.55;;;;;;;-0.23;75.23535;96360.66;;;;
2022/01/22 01:03:14;;;;;;;5.150001;2.55;;;;;;;-0.23;75.23535;96360.66;;;;
2022/01/22 01:04:14;;;;;;;5.150001;2.55;;;;;;;-0.23;75.23535;96360.66;;;;
2022/01/22 01:05:15;;;;;;;5.150001;2.55;;;;;;;-0.23;75.23535;96360.66;;;;
2022/01/22 01:06:16;;;;;;;5.150001;2.55;;;;;;;-0.23;75.23535;96360.66;;;;
2022/01/22 01:07:17;;;;;;;5.150001;2.55;;;;;;;-0.23;75.23535;96360.66;;;;
2022/01/22 01:08:17;;;;;;;5.150001;2.55;;;;;;;-0.23;75.23535;96360.66;;;;
2022/01/22 01:09:18;;;;;;;5.150001;2.55;;;;;;;-0.23;75.23535;96360.66;;;;
2022/01/22 01:10:19;;;;;;;3.35;2;;;;;;;-0.11;74.94531;96352.37;;;;
2022/01/22 01:11:23;;;;;;;3.35;2;;;;;;;-0.11;74.94531;96352.37;;;;
2022/01/22 01:12:24;;;;;;;3.35;2;;;;;;;-0.11;74.94531;96352.37;;;;
2022/01/22 01:13:26;;;;;;;3.35;2;;;;;;;-0.11;74.94531;96352.37;;;;
2022/01/22 01:14:32;;;;;;;3.35;2;;;;;;;-0.11;74.94531;96352.37;;;;
2022/01/22 01:15:41;;;;;;;3.35;2;;;;;;;-0.11;74.94531;96352.37;;;;
2022/01/22 01:16:56;;;;;;;3.35;2;;;;;;;-0.11;74.94531;96352.37;;;;
2022/01/22 01:23:25;;;;;;;3.35;2;;;;;;;-0.11;74.94531;96352.37;;;;
2022/01/22 01:34:32;;;;;;;4.5;2.55;;;;;;;0;74.50488;96337.18;;;;
2022/01/22 01:35:36;;;;;;;4.5;2.55;;;;;;;0;74.50488;96337.18;;;;
2022/01/22 01:36:37;;;;;;;4.5;2.55;;;;;;;0;74.50488;96337.18;;;;
2022/01/22 01:37:39;;;;;;;4.5;2.55;;;;;;;0;74.50488;96337.18;;;;
2022/01/22 01:38:44;;;;;;;4.5;2.55;;;;;;;0;74.50488;96337.18;;;;
2022/01/22 01:39:46;;;;;;;4.5;2.55;;;;;;;0;74.50488;96337.18;;;;
2022/01/22 01:40:56;;;;;;;4.5;2.55;;;;;;;0;74.50488;96337.18;;;;
2022/01/22 01:42:01;;;;;;;4.15;2;;;;;;;0.05;74.37695;96334.53;;;;
2022/01/22 01:43:07;;;;;;;4.15;2;;;;;;;0.05;74.37695;96334.53;;;;
2022/01/22 01:44:09;;;;;;;4.15;2;;;;;;;0.05;74.37695;96334.53;;;;
2022/01/22 01:45:10;;;;;;;4.15;2;;;;;;;0.05;74.37695;96334.53;;;;
2022/01/22 01:46:11;;;;;;;4.15;2;;;;;;;0.05;74.37695;96334.53;;;;
2022/01/22 01:47:14;;;;;;;4.15;2;;;;;;;0.05;74.37695;96334.53;;;;
2022/01/22 01:48:20;;;;;;;4.15;2;;;;;;;0.05;74.37695;96334.53;;;;
2022/01/22 01:49:21;;;;;;;4.15;2;;;;;;;0.05;74.37695;96334.53;;;;
2022/01/22 01:50:22;;;;;;;4.15;2;;;;;;;0.05;74.37695;96334.53;;;;
2022/01/22 01:51:26;;;;;;;4.15;2;;;;;;;0.05;74.37695;96334.53;;;;
2022/01/22 01:52:35;;;;;;;4.55;2.1;;;;;;;0.06;74.21191;96341.97;;;;
2022/01/22 01:53:49;;;;;;;4.55;2.1;;;;;;;0.06;74.21191;96341.97;;;;
2022/01/22 01:55:01;;;;;;;4.55;2.1;;;;;;;0.06;74.21191;96341.97;;;;
2022/01/22 01:57:25;;;;;;;4.55;2.1;;;;;;;0.06;74.21191;96341.97;;;;
2022/01/22 01:58:28;;;;;;;4.55;2.1;;;;;;;0.06;74.21191;96341.97;;;;
2022/01/22 01:59:29;;;;;;;4.55;2.1;;;;;;;0.06;74.21191;96341.97;;;;
2022/01/22 02:00:29;;;;;;;4.55;2.1;;;;;;;0.06;74.21191;96341.97;;;;
2022/01/22 02:01:30;;;;;;;4.55;2.1;;;;;;;0.06;74.21191;96341.97;;;;
2022/01/22 02:02:32;;;;;;;4.55;2.1;;;;;;;0.06;74.21191;96341.97;;;;
2022/01/22 02:03:33;;;;;;;3.15;1.8;;;;;;;0.08;74.18359;96337.78;;;;
2022/01/22 02:04:34;;;;;;;3.15;1.8;;;;;;;0.08;74.18359;96337.78;;;;
2022/01/22 02:05:35;;;;;;;3.15;1.8;;;;;;;0.08;74.18359;96337.78;;;;
2022/01/22 02:06:36;;;;;;;3.15;1.8;;;;;;;0.08;74.18359;96337.78;;;;
2022/01/22 02:07:39;;;;;;;3.15;1.8;;;;;;;0.08;74.18359;96337.78;;;;
2022/01/22 02:08:41;;;;;;;3.15;1.8;;;;;;;0.08;74.18359;96337.78;;;;
2022/01/22 02:09:43;;;;;;;3.15;1.8;;;;;;;0.08;74.18359;96337.78;;;;
2022/01/22 02:10:48;;;;;;;3.15;1.8;;;;;;;0.08;74.18359;96337.78;;;;
2022/01/22 02:11:58;;;;;;;3.15;1.8;;;;;;;0.08;74.18359;96337.78;;;;
2022/01/22 02:13:41;;;;;;;3.15;1.8;;;;;;;0.08;74.18359;96337.78;;;;
2022/01/22 02:25:09;;;;;;;3.5;1.65;;;;;;;0.29;73.83301;96300.81;;;;
2022/01/22 02:26:10;;;;;;;3.5;1.65;;;;;;;0.29;73.83301;96300.81;;;;
2022/01/22 02:27:14;;;;;;;3.5;1.65;;;;;;;0.29;73.83301;96300.81;;;;
2022/01/22 02:28:15;;;;;;;3.5;1.65;;;;;;;0.29;73.83301;96300.81;;;;
2022/01/22 02:29:15;;;;;;;3.5;1.65;;;;;;;0.29;73.83301;96300.81;;;;
2022/01/22 02:30:20;;;;;;;3.5;1.65;;;;;;;0.29;73.83301;96300.81;;;;
2022/01/22 02:31:27;;;;;;;3.5;1.65;;;;;;;0.29;73.83301;96300.81;;;;
2022/01/22 02:33:10;;;;;;;3.5;1.65;;;;;;;0.29;73.83301;96300.81;;;;
2022/01/22 02:34:17;;;;;;;3.5;1.65;;;;;;;0.29;73.83301;96300.81;;;;
2022/01/22 02:35:24;;;;;;;2.5;1.65;;;;;;;0.34;73.65527;96290.47;;;;
2022/01/22 02:36:29;;;;;;;2.5;1.65;;;;;;;0.34;73.65527;96290.47;;;;
2022/01/22 02:37:37;;;;;;;2.5;1.65;;;;;;;0.34;73.65527;96290.47;;;;
2022/01/22 02:38:45;;;;;;;2.5;1.65;;;;;;;0.34;73.65527;96290.47;;;;
2022/01/22 02:39:59;;;;;;;2.5;1.65;;;;;;;0.34;73.65527;96290.47;;;;
2022/01/22 02:40:59;;;;;;;2.5;1.65;;;;;;;0.34;73.65527;96290.47;;;;
2022/01/22 02:42:00;;;;;;;2.5;1.65;;;;;;;0.34;73.65527;96290.47;;;;
2022/01/22 02:43:00;;;;;;;2.5;1.65;;;;;;;0.34;73.65527;96290.47;;;;
2022/01/22 02:44:01;;;;;;;2.5;1.65;;;;;;;0.34;73.65527;96290.47;;;;
2022/01/22 02:45:06;;;;;;;2.5;1.65;;;;;;;0.34;73.65527;96290.47;;;;
2022/01/22 02:46:08;;;;;;;2.75;1.6;;;;;;;0.41;73.50977;96308;;;;
2022/01/22 02:47:08;;;;;;;2.75;1.6;;;;;;;0.41;73.50977;96308;;;;
2022/01/22 02:48:10;;;;;;;2.75;1.6;;;;;;;0.41;73.50977;96308;;;;
2022/01/22 02:49:11;;;;;;;2.75;1.6;;;;;;;0.41;73.50977;96308;;;;
2022/01/22 02:50:11;;;;;;;2.75;1.6;;;;;;;0.41;73.50977;96308;;;;
2022/01/22 02:51:13;;;;;;;2.75;1.6;;;;;;;0.41;73.50977;96308;;;;
2022/01/22 02:52:17;;;;;;;2.75;1.6;;;;;;;0.41;73.50977;96308;;;;
2022/01/22 02:53:18;;;;;;;2.75;1.6;;;;;;;0.41;73.50977;96308;;;;
2022/01/22 02:54:18;;;;;;;2.75;1.6;;;;;;;0.41;73.50977;96308;;;;
2022/01/22 02:55:19;;;;;;;2.75;1.6;;;;;;;0.41;73.50977;96308;;;;
2022/01/22 02:56:20;;;;;;;0;0;;;;;;;0;0;0;;;;
2022/01/22 02:57:22;;;;;;;0;0;;;;;;;0;0;0;;;;
2022/01/22 02:58:24;;;;;;;0;0;;;;;;;0;0;0;;;;
2022/01/22 02:59:25;;;;;;;0;0;;;;;;;0;0;0;;;;
2022/01/22 03:00:26;;;;;;;0;0;;;;;;;0;0;0;;;;
2022/01/22 03:01:27;;;;;;;0;0;;;;;;;0;0;0;;;;
2022/01/22 03:02:28;;;;;;;0;0;;;;;;;0;0;0;;;;
2022/01/22 03:03:28;;;;;;;0;0;;;;;;;0;0;0;;;;
2022/01/22 03:04:29;;;;;;;0;0;;;;;;;0;0;0;;;;
2022/01/22 03:05:30;;;;;;;0;0;;;;;;;0;0;0;;;;
2022/01/22 03:06:30;;;;;;;0;0;;;;;;;0;0;0;;;;
2022/01/22 03:07:31;;;;;;;0;0;;;;;;;0;0;0;;;;
2022/01/22 03:08:32;;;;;;;0;0;;;;;;;0;0;0;;;;
2022/01/22 03:09:40;;;;;;;0;0;;;;;;;0;0;0;;;;
2022/01/22 03:10:44;;;;;;;0;0;;;;;;;0;0;0;;;;
2022/01/22 03:11:59;;;;;;;0;0;;;;;;;0;0;0;;;;
2022/01/22 03:13:35;;;;;;;0;0;;;;;;;0;0;0;;;;
2022/01/22 03:15:17;;;;;;;0;0;;;;;;;0;0;0;;;;
2022/01/22 03:16:34;;;;;;;0;0;;;;;;;0;0;0;;;;
2022/01/22 03:17:49;;;;;;;0;0;;;;;;;0;0;0;;;;
2022/01/22 03:18:56;;;;;;;0;0;;;;;;;0;0;0;;;;
2022/01/22 03:20:05;;;;;;;0;0;;;;;;;0;0;0;;;;
2022/01/22 03:21:15;;;;;;;0;0;;;;;;;0;0;0;;;;
2022/01/22 03:22:19;;;;;;;0;0;;;;;;;0;0;0;;;;
2022/01/22 03:28:40;;;;;;;0;0;;;;;;;0;0;0;;;;
2022/01/22 03:29:43;;;;;;;0;0;;;;;;;0;0;0;;;;
2022/01/22 03:30:43;;;;;;;0;0;;;;;;;0;0;0;;;;
2022/01/22 03:31:44;;;;;;;0;0;;;;;;;0;0;0;;;;
2022/01/22 03:32:48;;;;;;;0;0;;;;;;;0;0;0;;;;
2022/01/22 03:33:49;;;;;;;0;0;;;;;;;0;0;0;;;;
2022/01/22 03:34:56;;;;;;;0;0;;;;;;;0;0;0;;;;
2022/01/22 03:35:59;;;;;;;0;0;;;;;;;0;0;0;;;;
2022/01/22 03:36:59;;;;;;;0;0;;;;;;;0;0;0;;;;
2022/01/22 03:38:00;;;;;;;0;0;;;;;;;0;0;0;;;;
2022/01/22 03:39:00;;;;;;;0;0;;;;;;;0;0;0;;;;
2022/01/22 03:40:03;;;;;;;0;0;;;;;;;0;0;0;;;;
2022/01/22 03:41:05;;;;;;;0;0;;;;;;;0;0;0;;;;
2022/01/22 03:42:06;;;;;;;0;0;;;;;;;0;0;0;;;;
2022/01/22 03:43:07;;;;;;;0;0;;;;;;;0;0;0;;;;
2022/01/22 03:44:08;;;;;;;0;0;;;;;;;0;0;0;;;;
2022/01/22 03:45:09;;;;;;;0;0;;;;;;;0;0;0;;;;
2022/01/22 03:46:11;;;;;;;0;0;;;;;;;0;0;0;;;;
2022/01/22 03:47:11;;;;;;;0;0;;;;;;;0;0;0;;;;
2022/01/22 03:48:12;;;;;;;0;0;;;;;;;0;0;0;;;;
2022/01/22 03:49:15;;;;;;;0;0;;;;;;;0;0;0;;;;
2022/01/22 03:50:16;;;;;;;0;0;;;;;;;0;0;0;;;;
2022/01/22 03:51:18;;;;;;;0;0;;;;;;;0;0;0;;;;
2022/01/22 03:52:18;;;;;;;0;0;;;;;;;0;0;0;;;;
2022/01/22 03:53:19;;;;;;;0;0;;;;;;;0;0;0;;;;
2022/01/22 03:54:19;;;;;;;0;0;;;;;;;0;0;0;;;;
2022/01/22 03:55:32;;;;;;;0;0;;;;;;;0;0;0;;;;
2022/01/22 03:56:33;;;;;;;0;0;;;;;;;0;0;0;;;;
2022/01/22 03:57:33;;;;;;;0;0;;;;;;;0;0;0;;;;
2022/01/22 03:58:34;;;;;;;0;0;;;;;;;0;0;0;;;;
2022/01/22 03:59:36;;;;;;;0;0;;;;;;;0;0;0;;;;
2022/01/22 04:00:37;;;;;;;0;0;;;;;;;0;0;0;;;;
2022/01/22 04:02:04;;;;;;;0;0;;;;;;;0;0;0;;;;
2022/01/22 04:03:29;;;;;;;0;0;;;;;;;0;0;0;;;;
2022/01/22 04:04:33;;;;;;;0;0;;;;;;;0;0;0;;;;
2022/01/22 04:05:38;;;;;;;0;0;;;;;;;0;0;0;;;;
2022/01/22 04:07:10;;;;;;;0;0;;;;;;;0;0;0;;;;
2022/01/22 04:08:14;;;;;;;0;0;;;;;;;0;0;0;;;;
2022/01/22 04:09:17;;;;;;;0;0;;;;;;;0;0;0;;;;
2022/01/22 04:10:20;;;;;;;0;0;;;;;;;0;0;0;;;;
2022/01/22 04:11:21;;;;;;;0;0;;;;;;;0;0;0;;;;
2022/01/22 04:12:30;;;;;;;0;0;;;;;;;0;0;0;;;;
2022/01/22 04:13:34;;;;;;;0;0;;;;;;;0;0;0;;;;
2022/01/22 04:14:36;;;;;;;0;0;;;;;;;0;0;0;;;;
2022/01/22 04:15:39;;;;;;;0;0;;;;;;;0;0;0;;;;
2022/01/22 04:16:57;;;;;;;0;0;;;;;;;0;0;0;;;;
2022/01/22 04:28:23;;;;;;;0;0;;;;;;;0;0;0;;;;
2022/01/22 04:29:23;;;;;;;0;0;;;;;;;0;0;0;;;;
2022/01/22 04:30:27;;;;;;;0;0;;;;;;;0;0;0;;;;
2022/01/22 04:31:28;;;;;;;0;0;;;;;;;0;0;0;;;;
2022/01/22 04:32:28;;;;;;;0;0;;;;;;;0;0;0;;;;
2022/01/22 04:33:31;;;;;;;0;0;;;;;;;0;0;0;;;;
2022/01/22 04:34:32;;;;;;;0;0;;;;;;;0;0;0;;;;
2022/01/22 04:35:33;;;;;;;0;0;;;;;;;0;0;0;;;;
2022/01/22 04:36:34;;;;;;;0;0;;;;;;;0;0;0;;;;
2022/01/22 04:37:35;;;;;;;0;0;;;;;;;0;0;0;;;;
2022/01/22 04:38:35;;;;;;;0;0;;;;;;;0;0;0;;;;
2022/01/22 04:39:36;;;;;;;0;0;;;;;;;0;0;0;;;;
2022/01/22 04:40:37;;;;;;;0;0;;;;;;;0;0;0;;;;
2022/01/22 04:41:37;;;;;;;0;0;;;;;;;0;0;0;;;;
2022/01/22 04:42:39;;;;;;;0;0;;;;;;;0;0;0;;;;
2022/01/22 04:43:42;;;;;;;0;0;;;;;;;0;0;0;;;;
2022/01/22 04:44:51;;;;;;;0;0;;;;;;;0;0;0;;;;
2022/01/22 04:46:06;;;;;;;0;0;;;;;;;0;0;0;;;;
2022/01/22 04:47:18;;;;;;;0;0;;;;;;;0;0;0;;;;
2022/01/22 04:48:40;;;;;;;0;0;;;;;;;0;0;0;;;;
2022/01/22 04:54:58;;;;;;;0;0;;;;;;;0;0;0;;;;
2022/01/22 04:55:59;;;;;;;0;0;;;;;;;0;0;0;;;;
2022/01/22 04:57:00;;;;;;;0;0;;;;;;;0;0;0;;;;
2022/01/22 04:58:03;;;;;;;0;0;;;;;;;0;0;0;;;;
2022/01/22 04:59:04;;;;;;;0;0;;;;;;;0;0;0;;;;
2022/01/22 05:00:04;;;;;;;0;0;;;;;;;0;0;0;;;;
2022/01/22 05:01:10;;;;;;;0;0;;;;;;;0;0;0;;;;
2022/01/22 05:02:10;;;;;;;0;0;;;;;;;0;0;0;;;;
2022/01/22 05:03:11;;;;;;;0;0;;;;;;;0;0;0;;;;
2022/01/22 05:04:12;;;;;;;0;0;;;;;;;0;0;0;;;;
2022/01/22 05:05:12;;;;;;;0;0;;;;;;;0;0;0;;;;
2022/01/22 05:06:13;;;;;;;0;0;;;;;;;0;0;0;;;;
2022/01/22 05:07:13;;;;;;;0;0;;;;;;;0;0;0;;;;
2022/01/22 05:08:14;;;;;;;0;0;;;;;;;0;0;0;;;;
2022/01/22 05:09:15;;;;;;;0;0;;;;;;;0;0;0;;;;
2022/01/22 05:10:15;;;;;;;0;0;;;;;;;0;0;0;;;;
2022/01/22 05:11:18;;;;;;;0;0;;;;;;;0;0;0;;;;
2022/01/22 05:12:19;;;;;;;0;0;;;;;;;0;0;0;;;;
2022/01/22 05:13:19;;;;;;;0;0;;;;;;;0;0;0;;;;
2022/01/22 05:14:20;;;;;;;0;0;;;;;;;0;0;0;;;;
2022/01/22 05:15:20;;;;;;;0;0;;;;;;;0;0;0;;;;
2022/01/22 05:16:22;;;;;;;0;0;;;;;;;0;0;0;;;;
2022/01/22 05:17:22;;;;;;;0;0;;;;;;;0;0;0;;;;
2022/01/22 05:18:23;;;;;;;0;0;;;;;;;0;0;0;;;;
2022/01/22 05:19:30;;;;;;;0;0;;;;;;;0;0;0;;;;
2022/01/22 05:20:38;;;;;;;0;0;;;;;;;0;0;0;;;;
2022/01/22 05:21:40;;;;;;;0;0;;;;;;;0;0;0;;;;
2022/01/22 05:22:53;;;;;;;0;0;;;;;;;0;0;0;;;;
2022/01/22 05:23:56;;;;;;;0;0;;;;;;;0;0;0;;;;
2022/01/22 05:25:01;;;;;;;0;0;;;;;;;0;0;0;;;;
2022/01/22 05:26:09;;;;;;;0;0;;;;;;;0;0;0;;;;
2022/01/22 05:27:26;;;;;;;0;0;;;;;;;0;0;0;;;;
2022/01/22 05:29:45;;;;;;;0;0;;;;;;;0;0;0;;;;
2022/01/22 05:31:00;;;;;;;0;0;;;;;;;0;0;0;;;;
2022/01/22 05:32:22;;;;;;;0;0;;;;;;;0;0;0;;;;
2022/01/22 05:36:55;;;;;;;0;0;;;;;;;0;0;0;;;;
2022/01/22 05:37:55;;;;;;;0;0;;;;;;;0;0;0;;;;
2022/01/22 05:38:56;;;;;;;0;0;;;;;;;0;0;0;;;;
2022/01/22 05:39:57;;;;;;;0;0;;;;;;;0;0;0;;;;
2022/01/22 05:40:58;;;;;;;0;0;;;;;;;0;0;0;;;;
2022/01/22 05:41:58;;;;;;;0;0;;;;;;;0;0;0;;;;
2022/01/22 05:43:01;;;;;;;0;0;;;;;;;0;0;0;;;;
2022/01/22 05:44:02;;;;;;;0;0;;;;;;;0;0;0;;;;
2022/01/22 05:45:03;;;;;;;0;0;;;;;;;0;0;0;;;;
2022/01/22 05:46:06;;;;;;;0;0;;;;;;;0;0;0;;;;
2022/01/22 05:47:06;;;;;;;0;0;;;;;;;0;0;0;;;;
2022/01/22 05:48:07;;;;;;;0;0;;;;;;;0;0;0;;;;
2022/01/22 05:49:08;;;;;;;0;0;;;;;;;0;0;0;;;;
2022/01/22 05:50:14;;;;;;;0;0;;;;;;;0;0;0;;;;
2022/01/22 05:51:16;;;;;;;0;0;;;;;;;0;0;0;;;;
2022/01/22 05:52:25;;;;;;;0;0;;;;;;;0;0;0;;;;
2022/01/22 05:53:37;;;;;;;0;0;;;;;;;0;0;0;;;;
2022/01/22 05:55:06;;;;;;;0;0;;;;;;;0;0;0;;;;
2022/01/22 06:01:23;;;;;;;0;0;;;;;;;0;0;0;;;;
2022/01/22 06:02:24;;;;;;;0;0;;;;;;;0;0;0;;;;
2022/01/22 06:03:24;;;;;;;0;0;;;;;;;0;0;0;;;;
2022/01/22 06:04:25;;;;;;;0;0;;;;;;;0;0;0;;;;
2022/01/22 06:05:26;;;;;;;0;0;;;;;;;0;0;0;;;;
2022/01/22 06:06:26;;;;;;;0;0;;;;;;;0;0;0;;;;
2022/01/22 06:07:26;;;;;;;0;0;;;;;;;0;0;0;;;;
2022/01/22 06:08:30;;;;;;;0;0;;;;;;;0;0;0;;;;
2022/01/22 06:09:32;;;;;;;0;0;;;;;;;0;0;0;;;;
2022/01/22 06:10:34;;;;;;;0;0;;;;;;;0;0;0;;;;
2022/01/22 06:25:35;;;;;;;0;0;;;;;;;0;0;0;;;;
2022/01/22 06:26:36;;;;;;;0;0;;;;;;;0;0;0;;;;
2022/01/22 06:27:36;;;;;;;0;0;;;;;;;0;0;0;;;;
2022/01/22 06:28:37;;;;;;;0;0;;;;;;;0;0;0;;;;
2022/01/22 06:29:38;;;;;;;0;0;;;;;;;0;0;0;;;;
2022/01/22 06:30:38;;;;;;;0;0;;;;;;;0;0;0;;;;
2022/01/22 06:31:39;;;;;;;0;0;;;;;;;0;0;0;;;;
2022/01/22 06:32:40;;;;;;;0;0;;;;;;;0;0;0;;;;
2022/01/22 06:33:40;;;;;;;0;0;;;;;;;0;0;0;;;;
2022/01/22 06:34:41;;;;;;;0;0;;;;;;;0;0;0;;;;
2022/01/22 06:35:41;;;;;;;0;0;;;;;;;0;0;0;;;;
2022/01/22 06:36:42;;;;;;;0;0;;;;;;;0;0;0;;;;
2022/01/22 06:37:43;;;;;;;0;0;;;;;;;0;0;0;;;;
2022/01/22 06:38:44;;;;;;;0;0;;;;;;;0;0;0;;;;
2022/01/22 06:41:44;;;;;;;0;0;;;;;;;0;0;0;;;;
2022/01/22 06:42:45;;;;;;;0;0;;;;;;;0;0;0;;;;
2022/01/22 06:43:45;;;;;;;0;0;;;;;;;0;0;0;;;;
2022/01/22 06:44:46;;;;;;;0;0;;;;;;;0;0;0;;;;
2022/01/22 06:45:46;;;;;;;0;0;;;;;;;0;0;0;;;;
2022/01/22 06:46:47;;;;;;;0;0;;;;;;;0;0;0;;;;
2022/01/22 06:47:50;;;;;;;0;0;;;;;;;0;0;0;;;;
2022/01/22 06:48:51;;;;;;;0;0;;;;;;;0;0;0;;;;
2022/01/22 06:49:51;;;;;;;0;0;;;;;;;0;0;0;;;;
2022/01/22 06:50:53;;;;;;;0;0;;;;;;;0;0;0;;;;
2022/01/22 06:51:54;;;;;;;0;0;;;;;;;0;0;0;;;;
2022/01/22 06:52:56;;;;;;;0;0;;;;;;;0;0;0;;;;
2022/01/22 06:53:57;;;;;;;0;0;;;;;;;0;0;0;;;;
2022/01/22 06:54:58;;;;;;;0;0;;;;;;;0;0;0;;;;
2022/01/22 06:56:01;;;;;;;0;0;;;;;;;0;0;0;;;;
2022/01/22 06:57:02;;;;;;;0;0;;;;;;;0;0;0;;;;
2022/01/22 06:58:03;;;;;;;0;0;;;;;;;0;0;0;;;;
2022/01/22 06:59:04;;;;;;;0;0;;;;;;;0;0;0;;;;
2022/01/22 07:00:06;;;;;;;0;0;;;;;;;0;0;0;;;;
2022/01/22 07:01:08;;;;;;;0;0;;;;;;;0;0;0;;;;
2022/01/22 07:02:08;;;;;;;0;0;;;;;;;0;0;0;;;;
2022/01/22 07:03:09;;;;;;;0;0;;;;;;;0;0;0;;;;
2022/01/22 07:04:11;;;;;;;0;0;;;;;;;0;0;0;;;;
2022/01/22 07:05:12;;;;;;;0;0;;;;;;;0;0;0;;;;
2022/01/22 07:06:12;;;;;;;0;0;;;;;;;0;0;0;;;;
2022/01/22 07:07:13;;;;;;;0;0;;;;;;;0;0;0;;;;
2022/01/22 07:08:13;;;;;;;0;0;;;;;;;0;0;0;;;;
2022/01/22 07:09:14;;;;;;;0;0;;;;;;;0;0;0;;;;
2022/01/22 07:10:14;;;;;;;0;0;;;;;;;0;0;0;;;;
2022/01/22 07:11:15;;;;;;;0;0;;;;;;;0;0;0;;;;
2022/01/22 07:12:16;;;;;;;0;0;;;;;;;0;0;0;;;;
2022/01/22 07:13:17;;;;;;;0;0;;;;;;;0;0;0;;;;
2022/01/22 07:14:17;;;;;;;0;0;;;;;;;0;0;0;;;;
2022/01/22 07:15:19;;;;;;;0;0;;;;;;;0;0;0;;;;
2022/01/22 07:16:20;;;;;;;0;0;;;;;;;0;0;0;;;;
2022/01/22 07:17:20;;;;;;;0;0;;;;;;;0;0;0;;;;
2022/01/22 07:18:21;;;;;;;0;0;;;;;;;0;0;0;;;;
2022/01/22 07:19:21;;;;;;;0;0;;;;;;;0;0;0;;;;
2022/01/22 07:20:27;;;;;;;0;0;;;;;;;0;0;0;;;;
2022/01/22 07:21:29;;;;;;;0;0;;;;;;;0;0;0;;;;
2022/01/22 07:22:36;;;;;;;0;0;;;;;;;0;0;0;;;;
2022/01/22 07:24:41;;;;;;;0;0;;;;;;;0;0;0;;;;
2022/01/22 07:25:41;;;;;;;0;0;;;;;;;0;0;0;;;;
2022/01/22 07:26:43;;;;;;;0;0;;;;;;;0;0;0;;;;
2022/01/22 07:27:44;;;;;;;0;0;;;;;;;0;0;0;;;;
2022/01/22 07:28:45;;;;;;;0;0;;;;;;;0;0;0;;;;
2022/01/22 07:29:48;;;;;;;0;0;;;;;;;0;0;0;;;;
2022/01/22 07:30:48;;;;;;;0;0;;;;;;;0;0;0;;;;
2022/01/22 07:31:49;;;;;;;0;0;;;;;;;0;0;0;;;;
2022/01/22 07:32:49;;;;;;;0;0;;;;;;;0;0;0;;;;
2022/01/22 07:33:50;;;;;;;0;0;;;;;;;0;0;0;;;;
2022/01/22 07:34:50;;;;;;;0;0;;;;;;;0;0;0;;;;
2022/01/22 07:35:52;;;;;;;0;0;;;;;;;0;0;0;;;;
2022/01/22 07:36:53;;;;;;;0;0;;;;;;;0;0;0;;;;
2022/01/22 07:37:53;;;;;;;0;0;;;;;;;0;0;0;;;;
2022/01/22 07:38:55;;;;;;;0;0;;;;;;;0;0;0;;;;
2022/01/22 07:39:55;;;;;;;0;0;;;;;;;0;0;0;;;;
2022/01/22 07:40:56;;;;;;;0;0;;;;;;;0;0;0;;;;
2022/01/22 07:41:57;;;;;;;0;0;;;;;;;0;0;0;;;;
2022/01/22 07:42:57;;;;;;;0;0;;;;;;;0;0;0;;;;
2022/01/22 07:43:59;;;;;;;0;0;;;;;;;0;0;0;;;;
2022/01/22 07:44:59;;;;;;;0;0;;;;;;;0;0;0;;;;
2022/01/22 07:46:00;;;;;;;0;0;;;;;;;0;0;0;;;;
2022/01/22 07:47:00;;;;;;;0;0;;;;;;;0;0;0;;;;
2022/01/22 07:48:01;;;;;;;0;0;;;;;;;0;0;0;;;;
2022/01/22 07:49:05;;;;;;;0;0;;;;;;;0;0;0;;;;
2022/01/22 07:50:05;;;;;;;0;0;;;;;;;0;0;0;;;;
2022/01/22 07:51:07;;;;;;;0;0;;;;;;;0;0;0;;;;
2022/01/22 07:52:09;;;;;;;0;0;;;;;;;0;0;0;;;;
2022/01/22 07:53:10;;;;;;;0;0;;;;;;;0;0;0;;;;
2022/01/22 07:54:10;;;;;;;0;0;;;;;;;0;0;0;;;;
2022/01/22 07:55:11;;;;;;;0;0;;;;;;;0;0;0;;;;
2022/01/22 07:56:11;;;;;;;0;0;;;;;;;0;0;0;;;;
2022/01/22 07:57:12;;;;;;;0;0;;;;;;;0;0;0;;;;
2022/01/22 07:58:14;;;;;;;0;0;;;;;;;0;0;0;;;;
2022/01/22 07:59:15;;;;;;;0;0;;;;;;;0;0;0;;;;
2022/01/22 08:00:16;;;;;;;0;0;;;;;;;0;0;0;;;;
2022/01/22 08:01:17;;;;;;;0;0;;;;;;;0;0;0;;;;
2022/01/22 08:02:18;;;;;;;0;0;;;;;;;0;0;0;;;;
2022/01/22 08:03:18;;;;;;;0;0;;;;;;;0;0;0;;;;
2022/01/22 08:04:23;;;;;;;0;0;;;;;;;0;0;0;;;;
2022/01/22 08:05:24;;;;;;;0;0;;;;;;;0;0;0;;;;
2022/01/22 08:06:25;;;;;;;0;0;;;;;;;0;0;0;;;;
2022/01/22 08:07:25;;;;;;;0;0;;;;;;;0;0;0;;;;
2022/01/22 08:08:26;;;;;;;0;0;;;;;;;0;0;0;;;;
2022/01/22 08:09:26;;;;;;;0;0;;;;;;;0;0;0;;;;
2022/01/22 08:10:27;;;;;;;0;0;;;;;;;0;0;0;;;;
2022/01/22 08:11:28;;;;;;;0;0;;;;;;;0;0;0;;;;
2022/01/22 08:12:28;;;;;;;0;0;;;;;;;0;0;0;;;;
2022/01/22 08:13:29;;;;;;;0;0;;;;;;;0;0;0;;;;
2022/01/22 08:14:30;;;;;;;0;0;;;;;;;0;0;0;;;;
2022/01/22 08:15:30;;;;;;;0;0;;;;;;;0;0;0;;;;
2022/01/22 08:16:31;;;;;;;0;0;;;;;;;0;0;0;;;;
2022/01/22 08:17:31;;;;;;;0;0;;;;;;;0;0;0;;;;
2022/01/22 08:18:32;;;;;;;0;0;;;;;;;0;0;0;;;;
2022/01/22 08:19:32;;;;;;;0;0;;;;;;;0;0;0;;;;
2022/01/22 08:20:33;;;;;;;0;0;;;;;;;0;0;0;;;;
2022/01/22 08:21:34;;;;;;;0;0;;;;;;;0;0;0;;;;
2022/01/22 08:22:35;;;;;;;0;0;;;;;;;0;0;0;;;;
2022/01/22 08:23:35;;;;;;;0;0;;;;;;;0;0;0;;;;
2022/01/22 08:24:36;;;;;;;0;0;;;;;;;0;0;0;;;;
2022/01/22 08:25:39;;;;;;;0;0;;;;;;;0;0;0;;;;
2022/01/22 08:26:45;;;;;;;0;0;;;;;;;0;0;0;;;;
2022/01/22 08:28:53;;;;;;;0;0;;;;;;;0;0;0;;;;
2022/01/22 08:29:53;;;;;;;0;0;;;;;;;0;0;0;;;;
2022/01/22 08:30:55;;;;;;;0;0;;;;;;;0;0;0;;;;
2022/01/22 08:32:06;;;;;;;0;0;;;;;;;0;0;0;;;;
2022/01/22 08:33:31;;;;;;;0;0;;;;;;;0;0;0;;;;
2022/01/22 08:39:45;;;;;;;0;0;;;;;;;0;0;0;;;;
2022/01/22 08:40:45;;;;;;;0;0;;;;;;;0;0;0;;;;
2022/01/22 08:41:46;;;;;;;0;0;;;;;;;0;0;0;;;;
2022/01/22 08:42:47;;;;;;;0;0;;;;;;;0;0;0;;;;
2022/01/22 08:43:47;;;;;;;0;0;;;;;;;0;0;0;;;;
2022/01/22 08:44:48;;;;;;;0;0;;;;;;;0;0;0;;;;
2022/01/22 08:45:49;;;;;;;0;0;;;;;;;0;0;0;;;;
2022/01/22 08:46:51;;;;;;;0;0;;;;;;;0;0;0;;;;
2022/01/22 08:47:51;;;;;;;0;0;;;;;;;0;0;0;;;;
2022/01/22 08:48:52;;;;;;;0;0;;;;;;;0;0;0;;;;
2022/01/22 08:49:53;;;;;;;0;0;;;;;;;0;0;0;;;;
2022/01/22 08:50:53;;;;;;;0;0;;;;;;;0;0;0;;;;
2022/01/22 08:51:54;;;;;;;0;0;;;;;;;0;0;0;;;;
2022/01/22 08:52:55;;;;;;;0;0;;;;;;;0;0;0;;;;
2022/01/22 08:53:55;;;;;;;0;0;;;;;;;0;0;0;;;;
2022/01/22 08:54:56;;;;;;;0;0;;;;;;;0;0;0;;;;
2022/01/22 08:55:58;;;;;;;0;0;;;;;;;0;0;0;;;;
2022/01/22 08:56:59;;;;;;;0;0;;;;;;;0;0;0;;;;
2022/01/22 08:57:59;;;;;;;0;0;;;;;;;0;0;0;;;;
2022/01/22 08:59:01;;;;;;;0;0;;;;;;;0;0;0;;;;
2022/01/22 09:00:01;;;;;;;0;0;;;;;;;0;0;0;;;;
2022/01/22 09:01:03;;;;;;;0;0;;;;;;;0;0;0;;;;
2022/01/22 09:02:05;;;;;;;0;0;;;;;;;0;0;0;;;;
2022/01/22 09:03:06;;;;;;;0;0;;;;;;;0;0;0;;;;
2022/01/22 09:04:07;;;;;;;0;0;;;;;;;0;0;0;;;;
2022/01/22 09:05:08;;;;;;;0;0;;;;;;;0;0;0;;;;
2022/01/22 09:06:11;;;;;;;0;0;;;;;;;0;0;0;;;;
2022/01/22 09:07:12;;;;;;;0;0;;;;;;;0;0;0;;;;
2022/01/22 09:08:15;;;;;;;0;0;;;;;;;0;0;0;;;;
2022/01/22 09:09:16;;;;;;;0;0;;;;;;;0;0;0;;;;
2022/01/22 09:10:16;;;;;;;0;0;;;;;;;0;0;0;;;;
2022/01/22 09:11:17;;;;;;;0;0;;;;;;;0;0;0;;;;
2022/01/22 09:12:19;;;;;;;0;0;;;;;;;0;0;0;;;;